Time;durP1;ratioP1;P1;durP2;ratioP2;P2;SDS_P1;SDS_P2;PMS_P1;PMS_P2;Temp;Humidity;BMP_temperature;BMP_pressure;BME280_temperature;BME280_humidity;BME280_pressure;Samples;Min_cycle;Max_cycle;Signal;HPM_P1;HPM_P2
2023/10/14 00:00:57;;;;;;;14.82;4.43;;;;;;;24.17;52.36;99746.22;5048251;27;99638;-79
2023/10/14 00:03:28;;;;;;;8.07;4.60;;;;;;;23.99;53.01;99759.84;5041876;27;97270;-78
2023/10/14 00:05:55;;;;;;;12.05;4.07;;;;;;;24.06;52.75;99757.34;5050747;27;97914;-78
2023/10/14 00:08:24;;;;;;;8.00;3.75;;;;;;;23.85;53.14;99757.75;5049494;27;99229;-77
2023/10/14 00:10:51;;;;;;;9.07;4.07;;;;;;;23.80;54.67;99752.88;5050300;27;99250;-76
2023/10/14 00:13:17;;;;;;;16.83;4.28;;;;;;;23.79;55.15;99736.84;5056245;27;96990;-77
2023/10/14 00:15:45;;;;;;;12.75;5.07;;;;;;;23.91;56.22;99730.13;5052036;27;96955;-78
2023/10/14 00:18:13;;;;;;;8.55;4.20;;;;;;;23.78;56.47;99740.53;5046879;27;97805;-78
2023/10/14 00:20:40;;;;;;;15.52;4.80;;;;;;;23.70;56.10;99737.81;5054740;27;99204;-78
2023/10/14 00:23:07;;;;;;;11.05;4.68;;;;;;;23.66;56.63;99741.84;5053791;27;96588;-76
2023/10/14 00:25:34;;;;;;;15.07;5.10;;;;;;;23.58;56.14;99734.56;5054569;27;97025;-77
2023/10/14 00:28:11;;;;;;;6.75;4.18;;;;;;;23.45;57.29;99726.88;5054596;27;100693;-79
2023/10/14 00:30:38;;;;;;;10.57;3.92;;;;;;;23.25;57.27;99728.13;5052500;27;99435;-78
2023/10/14 00:33:05;;;;;;;12.00;4.40;;;;;;;23.21;56.97;99718.69;5052347;27;96865;-77
2023/10/14 00:35:32;;;;;;;9.57;3.67;;;;;;;23.11;56.30;99717.94;5051253;27;96950;-78
2023/10/14 00:38:08;;;;;;;13.25;4.00;;;;;;;23.08;56.47;99710.19;5047577;27;97112;-76
2023/10/14 00:40:37;;;;;;;8.88;3.47;;;;;;;23.09;55.98;99716.41;5053847;27;99535;-76
2023/10/14 00:43:04;;;;;;;9.93;4.00;;;;;;;23.14;56.44;99709.53;5048120;27;96774;-76
2023/10/14 00:45:31;;;;;;;15.98;4.13;;;;;;;23.28;55.64;99702.72;5056735;27;96796;-76
2023/10/14 00:47:59;;;;;;;12.05;3.60;;;;;;;22.96;55.28;99695.28;5050158;27;99421;-77
2023/10/14 00:50:33;;;;;;;8.70;3.63;;;;;;;22.86;55.89;99694.53;5054554;27;100041;-79
2023/10/14 00:53:05;;;;;;;7.47;4.15;;;;;;;22.96;55.97;99697.97;5056236;27;96910;-78
2023/10/14 00:55:45;;;;;;;13.43;4.40;;;;;;;23.02;55.17;99691.97;5052826;27;96671;-78
2023/10/14 00:58:14;;;;;;;14.68;4.10;;;;;;;23.18;55.31;99696.56;5047640;27;99686;-77
2023/10/14 01:00:56;;;;;;;8.38;3.65;;;;;;;23.14;55.71;99676.34;5049392;27;99013;-77
2023/10/14 01:03:23;;;;;;;13.63;4.43;;;;;;;22.98;56.00;99682.47;5049169;27;96810;-77
2023/10/14 01:05:50;;;;;;;14.10;3.42;;;;;;;22.97;56.81;99680.81;5055222;27;96930;-77
2023/10/14 01:08:20;;;;;;;8.43;3.55;;;;;;;22.85;56.85;99672.13;5050322;27;97705;-77
2023/10/14 01:10:49;;;;;;;11.73;3.65;;;;;;;22.73;56.75;99672.56;5057537;27;99767;-76
2023/10/14 01:13:17;;;;;;;12.88;4.43;;;;;;;22.79;56.95;99669.22;5053524;27;96918;-76
2023/10/14 01:15:47;;;;;;;13.90;4.15;;;;;;;22.94;56.55;99665.81;5051598;27;96769;-76
2023/10/14 01:18:14;;;;;;;10.13;3.90;;;;;;;22.92;56.57;99648.94;5054728;27;98904;-78
2023/10/14 01:20:41;;;;;;;8.80;3.85;;;;;;;22.87;57.66;99647.75;5054633;27;99370;-76
2023/10/14 01:23:14;;;;;;;12.43;4.00;;;;;;;23.24;56.61;99640.19;5050370;27;97029;-77
2023/10/14 01:25:47;;;;;;;8.73;3.53;;;;;;;23.24;56.28;99628.56;5051270;27;96782;-78
2023/10/14 01:28:15;;;;;;;13.70;4.10;;;;;;;23.20;56.80;99628.06;5052382;27;102785;-78
2023/10/14 01:31:03;;;;;;;10.15;3.75;;;;;;;23.13;57.05;99616.22;5053316;27;98391;-77
2023/10/14 01:33:35;;;;;;;11.63;3.97;;;;;;;23.20;56.13;99592.19;5046327;27;96828;-76
2023/10/14 01:36:02;;;;;;;12.30;3.80;;;;;;;23.02;57.48;99576.97;5054256;27;96850;-77
2023/10/14 01:38:32;;;;;;;11.98;3.95;;;;;;;22.99;57.98;99576.41;5049897;27;98981;-77
2023/10/14 01:41:03;;;;;;;13.55;4.03;;;;;;;23.06;57.62;99577.47;5049029;27;100587;-76
2023/10/14 01:43:36;;;;;;;10.43;3.90;;;;;;;22.93;58.12;99563.59;5051860;27;97094;-77
2023/10/14 01:46:08;;;;;;;7.15;3.53;;;;;;;22.92;58.25;99583.47;5046930;27;96828;-76
2023/10/14 01:48:38;;;;;;;11.98;3.50;;;;;;;22.94;58.15;99579.63;5050014;27;99531;-76
2023/10/14 01:51:05;;;;;;;10.13;4.10;;;;;;;23.14;58.38;99582.03;5049618;27;98839;-77
2023/10/14 01:53:35;;;;;;;9.38;3.45;;;;;;;22.90;59.16;99588.19;5051537;27;97050;-76
2023/10/14 01:56:02;;;;;;;12.77;3.95;;;;;;;23.03;59.66;99573.25;5053686;27;97256;-78
2023/10/14 01:58:33;;;;;;;15.35;4.03;;;;;;;23.16;60.15;99569.28;5048633;27;100716;-75
2023/10/14 02:01:07;;;;;;;13.25;3.75;;;;;;;22.85;60.75;99558.16;5052498;27;100204;-74
2023/10/14 02:03:41;;;;;;;8.90;3.75;;;;;;;22.85;60.84;99544.72;5047956;27;96856;-76
2023/10/14 02:06:11;;;;;;;11.63;3.83;;;;;;;23.03;60.51;99538.25;5051665;27;96768;-73
2023/10/14 02:08:39;;;;;;;7.70;3.33;;;;;;;23.16;60.11;99535.09;5048313;27;98414;-75
2023/10/14 02:11:06;;;;;;;5.40;3.20;;;;;;;23.10;60.52;99533.03;5050479;27;99097;-75
2023/10/14 02:13:36;;;;;;;14.35;4.20;;;;;;;23.03;60.59;99523.94;5051924;27;96826;-74
2023/10/14 02:16:07;;;;;;;10.52;3.47;;;;;;;23.15;60.86;99506.44;5051752;27;96912;-75
2023/10/14 02:18:36;;;;;;;9.88;4.05;;;;;;;23.14;60.55;99504.75;5053534;27;97929;-75
2023/10/14 02:21:11;;;;;;;10.80;4.07;;;;;;;22.95;61.15;99505.03;5049983;27;100879;-75
2023/10/14 02:23:47;;;;;;;13.73;4.30;;;;;;;23.11;60.90;99504.22;5049675;27;97013;-74
2023/10/14 02:26:16;;;;;;;11.15;3.95;;;;;;;23.02;61.10;99515.00;5049691;27;96820;-75
2023/10/14 02:28:46;;;;;;;19.05;3.97;;;;;;;23.01;60.89;99525.94;5052538;27;96987;-75
2023/10/14 02:31:17;;;;;;;7.97;3.72;;;;;;;22.97;61.01;99513.81;5050351;27;97988;-76
2023/10/14 02:33:47;;;;;;;12.07;4.10;;;;;;;22.84;61.73;99519.63;5052041;27;96798;-75
2023/10/14 02:36:15;;;;;;;12.32;3.88;;;;;;;22.82;61.42;99520.81;5049908;27;100065;-75
2023/10/14 02:38:46;;;;;;;17.38;4.45;;;;;;;22.98;61.18;99512.78;5048268;27;99122;-75
2023/10/14 02:41:15;;;;;;;15.80;4.38;;;;;;;22.86;61.44;99517.63;5051882;27;98843;-75
2023/10/14 02:43:42;;;;;;;8.85;3.67;;;;;;;22.75;61.50;99512.53;5049670;27;97886;-80
2023/10/14 02:46:10;;;;;;;7.95;3.90;;;;;;;22.87;60.72;99505.00;5053547;27;97224;-76
2023/10/14 02:48:52;;;;;;;10.25;3.85;;;;;;;22.95;60.12;99505.03;5049884;27;97131;-77
2023/10/14 02:51:29;;;;;;;7.20;3.55;;;;;;;22.85;59.84;99499.75;5053691;27;97699;-76
2023/10/14 02:54:02;;;;;;;9.70;3.97;;;;;;;22.94;59.79;99504.19;5053521;27;96946;-76
2023/10/14 02:56:33;;;;;;;15.50;4.25;;;;;;;22.97;59.42;99486.88;5054358;27;96711;-77
2023/10/14 02:59:00;;;;;;;8.30;3.67;;;;;;;22.77;59.18;99494.38;5051110;27;99287;-76
2023/10/14 03:01:31;;;;;;;9.27;3.67;;;;;;;22.65;59.59;99488.38;5053316;27;99263;-76
2023/10/14 03:04:07;;;;;;;9.10;3.78;;;;;;;22.52;59.95;99487.13;5045978;27;96826;-75
2023/10/14 03:06:46;;;;;;;;;;;;;;;22.67;58.51;99485.53;5045606;27;97793;-75
2023/10/14 03:09:17;;;;;;;13.65;3.65;;;;;;;22.63;57.61;99485.03;5051863;27;97820;-75
2023/10/14 03:11:44;;;;;;;11.60;3.80;;;;;;;22.61;57.23;99484.34;5053896;27;98633;-76
2023/10/14 03:14:10;;;;;;;12.82;4.50;;;;;;;22.66;56.85;99473.06;5051080;27;96778;-75
2023/10/14 03:16:37;;;;;;;9.63;3.58;;;;;;;22.61;56.67;99478.94;5053160;27;97162;-76
2023/10/14 03:19:05;;;;;;;9.05;3.50;;;;;;;22.80;56.05;99471.63;5052320;27;99303;-76
2023/10/14 03:21:33;;;;;;;8.38;3.60;;;;;;;22.83;55.67;99471.31;5045456;27;98803;-77
2023/10/14 03:24:00;;;;;;;10.63;3.63;;;;;;;22.84;55.21;99486.50;5051799;27;96825;-76
2023/10/14 03:26:32;;;;;;;10.35;3.60;;;;;;;22.96;54.63;99466.31;5050930;27;96775;-75
2023/10/14 03:29:04;;;;;;;12.25;3.60;;;;;;;22.79;54.98;99469.94;5044170;27;99752;-77
2023/10/14 03:31:35;;;;;;;7.45;3.25;;;;;;;22.99;54.62;99479.44;5049144;27;99435;-75
2023/10/14 03:34:08;;;;;;;11.00;3.63;;;;;;;23.16;54.32;99462.34;5047484;27;97675;-76
2023/10/14 03:36:34;;;;;;;5.85;3.35;;;;;;;23.23;54.10;99466.06;5052476;27;96776;-77
2023/10/14 03:39:17;;;;;;;13.70;4.60;;;;;;;23.23;54.20;99470.59;5046316;27;96953;-77
2023/10/14 03:41:43;;;;;;;17.58;5.13;;;;;;;23.26;54.39;99471.09;5053028;27;99484;-77
2023/10/14 03:44:12;;;;;;;11.68;3.88;;;;;;;23.26;54.14;99454.06;5052336;27;96788;-77
2023/10/14 03:46:42;;;;;;;13.07;4.38;;;;;;;23.27;54.42;99451.22;5052443;27;96881;-76
2023/10/14 03:49:11;;;;;;;11.05;4.40;;;;;;;23.20;54.35;99443.97;5053580;27;97651;-76
2023/10/14 03:51:39;;;;;;;13.73;4.90;;;;;;;23.40;54.10;99446.19;5054439;27;98999;-77
2023/10/14 03:54:08;;;;;;;10.32;4.30;;;;;;;23.37;53.65;99441.13;5045176;27;96970;-76
2023/10/14 03:56:36;;;;;;;11.02;4.35;;;;;;;23.29;54.17;99443.81;5050847;27;98774;-76
2023/10/14 03:59:05;;;;;;;12.40;4.22;;;;;;;23.55;53.46;99442.84;5049061;27;101166;-75
2023/10/14 04:01:43;;;;;;;7.60;4.20;;;;;;;23.39;53.61;99436.41;5049843;27;102253;-75
2023/10/14 04:04:17;;;;;;;10.20;4.32;;;;;;;23.47;53.77;99424.81;5049458;27;96652;-76
2023/10/14 04:06:51;;;;;;;11.45;4.30;;;;;;;23.67;53.38;99428.00;5043556;27;96822;-76
2023/10/14 04:09:23;;;;;;;11.40;4.05;;;;;;;23.59;53.43;99434.25;5049978;27;102799;-76
2023/10/14 04:11:52;;;;;;;9.65;5.05;;;;;;;23.60;53.34;99427.00;5043043;27;99446;-76
2023/10/14 04:14:27;;;;;;;12.68;5.00;;;;;;;23.57;53.03;99421.94;5048469;27;96832;-76
2023/10/14 04:17:09;;;;;;;19.67;4.90;;;;;;;23.57;53.06;99421.94;5044465;27;96775;-76
2023/10/14 04:19:44;;;;;;;13.50;4.45;;;;;;;23.22;53.96;99415.84;5042499;27;99021;-76
2023/10/14 04:22:27;;;;;;;7.75;4.22;;;;;;;23.26;54.33;99417.19;5045033;27;99116;-76
2023/10/14 04:25:16;;;;;;;13.73;4.50;;;;;;;23.11;54.71;99409.91;5048585;27;96777;-75
2023/10/14 04:27:46;;;;;;;15.07;4.60;;;;;;;23.20;54.56;99414.31;5048817;27;96855;-75
2023/10/14 04:30:20;;;;;;;10.00;3.88;;;;;;;23.38;54.07;99406.91;5041420;27;99119;-77
2023/10/14 04:32:48;;;;;;;10.23;4.60;;;;;;;23.53;53.15;99410.66;5044447;27;99257;-77
2023/10/14 04:35:18;;;;;;;15.65;4.88;;;;;;;23.40;53.52;99400.34;5046786;27;96901;-75
2023/10/14 04:37:52;;;;;;;14.55;4.57;;;;;;;23.54;52.92;99400.72;5046122;27;97165;-75
2023/10/14 04:40:35;;;;;;;15.02;4.50;;;;;;;23.49;52.77;99403.09;5043964;27;99285;-75
2023/10/14 04:43:06;;;;;;;9.57;4.63;;;;;;;23.53;52.71;99404.44;5044246;27;98793;-76
2023/10/14 04:45:34;;;;;;;10.82;3.72;;;;;;;23.56;53.02;99414.88;5045203;27;96669;-76
2023/10/14 04:48:05;;;;;;;11.32;4.32;;;;;;;23.52;52.66;99400.03;5045909;27;97636;-76
2023/10/14 04:50:33;;;;;;;16.27;5.03;;;;;;;23.40;53.23;99424.63;5043579;27;101441;-75
2023/10/14 04:52:59;;;;;;;9.40;4.55;;;;;;;23.64;53.93;99437.28;5049897;27;98778;-76
2023/10/14 04:55:32;;;;;;;13.00;4.78;;;;;;;23.38;56.79;99464.38;5053435;27;96778;-77
2023/10/14 04:58:11;;;;;;;14.23;4.80;;;;;;;23.04;60.42;99477.09;5053316;27;96722;-77
2023/10/14 05:00:43;;;;;;;17.52;5.35;;;;;;;22.98;62.39;99505.53;5045320;27;98895;-77
2023/10/14 05:03:11;;;;;;;19.10;5.38;;;;;;;22.04;73.09;99536.13;5051017;27;99307;-76
2023/10/14 05:05:39;;;;;;;18.45;5.72;;;;;;;20.91;82.38;99539.28;5053635;27;96949;-76
2023/10/14 05:08:07;;;;;;;16.70;5.30;;;;;;;20.85;83.53;99558.69;5047314;27;97979;-77
2023/10/14 05:10:33;;;;;;;11.93;5.70;;;;;;;20.58;85.67;99548.75;5046264;27;98876;-79
2023/10/14 05:13:01;;;;;;;17.33;5.43;;;;;;;20.76;85.34;99572.13;5052509;27;101748;-79
2023/10/14 05:15:29;;;;;;;17.38;5.25;;;;;;;20.61;86.26;99569.94;5051866;27;96973;-79
2023/10/14 05:18:00;;;;;;;13.00;5.50;;;;;;;20.78;85.87;99572.84;5048880;27;96877;-80
2023/10/14 05:20:47;;;;;;;16.38;5.55;;;;;;;20.65;85.80;99589.28;5050331;27;98790;-77
2023/10/14 05:23:16;;;;;;;;;;;;;;;20.71;86.32;99598.59;5046164;27;98859;-78
2023/10/14 05:25:43;;;;;;;11.27;4.43;;;;;;;21.01;84.87;99606.38;5049957;27;96843;-78
2023/10/14 05:28:10;;;;;;;9.10;4.55;;;;;;;20.82;84.58;99601.94;5051897;27;96740;-77
2023/10/14 05:30:39;;;;;;;8.60;4.43;;;;;;;21.26;83.21;99610.25;5052807;27;97862;-77
2023/10/14 05:33:13;;;;;;;7.75;3.25;;;;;;;21.05;82.53;99626.59;5049152;27;99599;-78
2023/10/14 05:35:41;;;;;;;7.93;2.92;;;;;;;21.15;81.87;99648.84;5051603;27;96759;-77
2023/10/14 05:38:09;;;;;;;8.38;2.75;;;;;;;21.12;81.32;99646.50;5049034;27;96823;-78
2023/10/14 05:40:37;;;;;;;6.78;2.15;;;;;;;21.29;79.77;99661.84;5053027;27;101613;-77
2023/10/14 05:43:06;;;;;;;3.40;1.77;;;;;;;21.12;78.96;99667.97;5051509;27;98912;-78
2023/10/14 05:45:34;;;;;;;5.03;1.30;;;;;;;21.02;75.88;99705.59;5048344;27;96798;-78
2023/10/14 05:48:00;;;;;;;3.13;0.88;;;;;;;20.67;71.72;99711.63;5049497;27;97009;-78
2023/10/14 05:50:28;;;;;;;3.10;0.85;;;;;;;20.45;70.75;99708.38;5052361;27;99067;-78
2023/10/14 05:52:55;;;;;;;3.60;0.60;;;;;;;20.02;69.64;99717.63;5053772;27;99227;-75
2023/10/14 05:55:21;;;;;;;1.17;0.43;;;;;;;20.09;69.23;99759.00;5049779;27;96951;-76
2023/10/14 05:57:49;;;;;;;1.10;0.60;;;;;;;20.24;69.30;99776.41;5044755;27;97114;-77
2023/10/14 06:00:23;;;;;;;1.25;0.40;;;;;;;19.54;70.56;99789.03;5047637;27;98979;-77
2023/10/14 06:02:51;;;;;;;0.55;0.40;;;;;;;19.61;70.18;99812.50;5050899;27;99860;-78
2023/10/14 06:05:19;;;;;;;2.40;0.50;;;;;;;19.53;70.23;99825.69;5051245;27;96804;-76
2023/10/14 06:07:47;;;;;;;0.45;0.38;;;;;;;19.42;70.46;99836.47;5051760;27;97256;-78
2023/10/14 06:10:20;;;;;;;1.40;0.57;;;;;;;19.39;69.90;99848.28;5045760;27;99376;-79
2023/10/14 06:12:50;;;;;;;1.85;0.45;;;;;;;19.14;70.23;99862.09;5050448;27;100026;-77
2023/10/14 06:15:17;;;;;;;1.30;0.43;;;;;;;19.37;69.20;99862.78;5042479;27;98158;-80
2023/10/14 06:17:44;;;;;;;5.05;0.68;;;;;;;19.13;70.08;99865.75;5048569;27;96969;-80
2023/10/14 06:20:13;;;;;;;3.45;0.60;;;;;;;19.32;70.64;99881.94;5045288;27;98848;-77
2023/10/14 06:22:40;;;;;;;1.90;0.50;;;;;;;19.28;69.85;99901.09;5049967;27;98853;-75
2023/10/14 06:25:14;;;;;;;1.85;0.43;;;;;;;18.79;71.31;99909.69;5052629;27;98770;-77
2023/10/14 06:27:45;;;;;;;1.75;0.30;;;;;;;18.87;72.05;99923.28;5050971;27;97175;-79
2023/10/14 06:30:19;;;;;;;1.25;0.40;;;;;;;18.79;72.61;99925.75;5052696;27;100611;-78
2023/10/14 06:32:47;;;;;;;2.15;0.63;;;;;;;18.97;71.38;99937.63;5043700;27;99060;-78
2023/10/14 06:35:14;;;;;;;5.95;0.60;;;;;;;18.77;72.98;99936.59;5046960;27;96738;-78
2023/10/14 06:37:43;;;;;;;1.77;0.50;;;;;;;18.93;71.91;99944.19;5050754;27;96887;-80
2023/10/14 06:40:12;;;;;;;3.13;0.63;;;;;;;19.04;71.60;99938.78;5047986;27;98224;-79
2023/10/14 06:42:40;;;;;;;1.42;0.60;;;;;;;19.09;71.14;99950.00;5052202;27;99417;-79
2023/10/14 06:45:07;;;;;;;1.63;0.90;;;;;;;19.20;70.06;99957.13;5051221;27;96752;-78
2023/10/14 06:47:34;;;;;;;3.20;0.70;;;;;;;19.15;69.14;99959.34;5050642;27;97447;-76
2023/10/14 06:50:01;;;;;;;2.53;0.80;;;;;;;19.24;69.20;99970.13;5049642;27;98933;-70
2023/10/14 06:52:29;;;;;;;6.70;0.80;;;;;;;19.14;69.00;99965.66;5047646;27;98738;-69
2023/10/14 06:55:00;;;;;;;2.03;0.63;;;;;;;19.33;69.58;99980.06;5048352;27;96830;-71
2023/10/14 06:57:28;;;;;;;2.10;0.80;;;;;;;19.10;70.10;99994.50;5051439;27;96962;-77
2023/10/14 06:59:55;;;;;;;1.10;0.60;;;;;;;19.16;70.46;100004.75;5042847;27;97645;-78
2023/10/14 07:02:22;;;;;;;3.58;0.80;;;;;;;19.30;69.23;100028.53;5044458;27;99802;-80
2023/10/14 07:04:50;;;;;;;3.05;0.80;;;;;;;19.10;69.86;100027.50;5043732;27;97418;-78
2023/10/14 07:07:19;;;;;;;8.05;0.70;;;;;;;18.90;71.14;100044.38;5047191;27;97214;-77
2023/10/14 07:09:47;;;;;;;1.67;0.45;;;;;;;18.80;70.91;100029.16;5048570;27;101602;-76
2023/10/14 07:12:14;;;;;;;3.90;0.60;;;;;;;18.70;71.44;100029.06;5049777;27;99874;-77
2023/10/14 07:14:44;;;;;;;1.73;0.70;;;;;;;18.96;70.00;100014.41;5042519;27;98329;-76
2023/10/14 07:17:12;;;;;;;3.20;0.80;;;;;;;18.84;70.51;100014.56;5047414;27;96844;-77
2023/10/14 07:19:39;;;;;;;2.70;0.77;;;;;;;19.24;69.04;100012.13;5050592;27;101743;-76
2023/10/14 07:22:07;;;;;;;1.42;0.57;;;;;;;19.39;68.25;100006.34;5046455;27;98836;-78
2023/10/14 07:24:36;;;;;;;2.47;0.93;;;;;;;18.98;69.01;100024.97;5048745;27;97122;-76
2023/10/14 07:27:03;;;;;;;6.15;0.98;;;;;;;19.01;68.63;100020.25;5039515;27;96919;-79
2023/10/14 07:29:30;;;;;;;1.83;0.63;;;;;;;18.86;69.38;100024.16;5048863;27;98958;-78
2023/10/14 07:31:57;;;;;;;2.65;0.90;;;;;;;18.88;69.37;100038.28;5047424;27;98941;-77
2023/10/14 07:34:24;;;;;;;1.48;0.60;;;;;;;18.78;70.30;100053.34;5046829;27;97259;-78
2023/10/14 07:36:51;;;;;;;3.28;0.73;;;;;;;18.96;70.08;100059.94;5048302;27;102875;-78
2023/10/14 07:39:28;;;;;;;3.78;0.82;;;;;;;18.55;70.25;100068.59;5045532;27;99093;-79
2023/10/14 07:41:55;;;;;;;3.08;1.08;;;;;;;18.51;70.96;100074.28;5046551;27;98809;-79
2023/10/14 07:44:22;;;;;;;4.13;0.60;;;;;;;18.45;71.31;100069.38;5044434;27;97167;-78
2023/10/14 07:46:49;;;;;;;3.10;0.73;;;;;;;18.76;69.69;100065.19;5048890;27;97286;-78
2023/10/14 07:49:17;;;;;;;2.83;1.00;;;;;;;18.59;70.78;100064.69;5050226;27;98948;-78
2023/10/14 07:51:43;;;;;;;1.58;0.57;;;;;;;18.98;69.31;100068.66;5050022;27;102353;-78
2023/10/14 07:54:12;;;;;;;9.00;1.25;;;;;;;19.18;67.94;100074.22;5044704;27;97524;-78
2023/10/14 07:56:39;;;;;;;3.78;0.90;;;;;;;19.33;67.35;100081.88;5048325;27;98624;-79
2023/10/14 07:59:08;;;;;;;4.07;1.10;;;;;;;19.59;67.28;100092.28;5053627;27;97949;-78
2023/10/14 08:01:37;;;;;;;3.30;0.90;;;;;;;19.98;65.76;100109.53;5047228;27;98717;-78
2023/10/14 08:04:07;;;;;;;4.50;0.98;;;;;;;20.03;64.38;100107.31;5041083;27;97885;-79
2023/10/14 08:06:35;;;;;;;4.32;0.88;;;;;;;19.78;64.85;100125.47;5029492;27;99195;-80
2023/10/14 08:09:03;;;;;;;6.32;1.73;;;;;;;19.80;64.64;100120.84;5027190;27;99173;-78
2023/10/14 08:11:36;;;;;;;4.00;1.60;;;;;;;19.95;64.11;100125.91;5024997;27;99397;-78
2023/10/14 08:14:06;;;;;;;5.93;0.90;;;;;;;20.28;63.28;100131.94;5043029;27;96864;-78
2023/10/14 08:16:32;;;;;;;3.00;1.02;;;;;;;19.90;63.53;100132.50;5046059;27;96910;-77
2023/10/14 08:19:04;;;;;;;6.20;1.27;;;;;;;19.78;63.06;100141.56;5046578;27;98855;-78
2023/10/14 08:21:30;;;;;;;3.90;0.98;;;;;;;19.55;63.27;100137.25;5045116;27;101799;-78
2023/10/14 08:23:58;;;;;;;6.20;1.27;;;;;;;19.35;62.61;100149.56;5048719;27;96818;-77
2023/10/14 08:26:26;;;;;;;6.55;1.23;;;;;;;19.21;63.86;100155.19;5043877;27;96854;-77
2023/10/14 08:28:59;;;;;;;9.10;0.90;;;;;;;19.58;63.72;100162.94;5044437;27;99219;-79
2023/10/14 08:31:26;;;;;;;7.60;1.60;;;;;;;19.88;62.02;100157.75;5051429;27;99225;-79
2023/10/14 08:33:52;;;;;;;13.40;1.70;;;;;;;19.71;62.02;100161.81;5046511;27;97122;-79
2023/10/14 08:36:19;;;;;;;8.02;1.33;;;;;;;19.74;62.05;100160.72;5047907;27;97399;-79
2023/10/14 08:38:47;;;;;;;7.13;1.40;;;;;;;19.40;61.80;100168.81;5050025;27;97549;-79
2023/10/14 08:41:15;;;;;;;7.70;1.45;;;;;;;19.62;61.04;100177.81;5053115;27;98841;-79
2023/10/14 08:43:49;;;;;;;9.05;1.25;;;;;;;19.54;60.71;100175.75;5048407;27;96829;-79
2023/10/14 08:46:17;;;;;;;8.45;1.45;;;;;;;19.39;60.66;100174.28;5056461;27;96724;-79
2023/10/14 08:48:46;;;;;;;8.48;1.95;;;;;;;19.76;59.75;100180.19;5048336;27;100509;-79
2023/10/14 08:51:14;;;;;;;8.98;1.30;;;;;;;19.61;59.11;100186.81;5050019;27;98937;-80
2023/10/14 08:53:48;;;;;;;5.03;1.17;;;;;;;20.05;57.27;100185.81;5053003;27;96702;-80
2023/10/14 08:56:17;;;;;;;8.30;1.58;;;;;;;20.24;55.98;100184.16;5048479;27;96791;-79
2023/10/14 08:58:43;;;;;;;9.50;2.03;;;;;;;20.41;54.59;100192.66;5049574;27;99639;-79
2023/10/14 09:01:14;;;;;;;10.05;1.85;;;;;;;20.56;54.09;100199.38;5050788;27;99640;-80
2023/10/14 09:03:43;;;;;;;11.32;1.92;;;;;;;20.23;55.08;100200.38;5051371;27;96798;-78
2023/10/14 09:06:11;;;;;;;9.73;1.40;;;;;;;20.52;54.16;100216.72;5052181;27;96936;-81
2023/10/14 09:08:39;;;;;;;17.70;2.22;;;;;;;20.69;52.78;100214.31;5046838;27;98873;-77
2023/10/14 09:11:06;;;;;;;17.00;2.10;;;;;;;20.07;53.53;100224.09;5045511;27;101511;-80
2023/10/14 09:13:34;;;;;;;6.75;1.38;;;;;;;20.33;52.83;100248.78;5049497;27;96849;-78
2023/10/14 09:16:03;;;;;;;7.90;1.40;;;;;;;19.86;53.34;100245.50;5051444;27;97654;-77
2023/10/14 09:18:30;;;;;;;11.15;1.90;;;;;;;19.43;54.58;100246.22;5042937;27;97967;-77
2023/10/14 09:21:01;;;;;;;7.93;1.33;;;;;;;19.62;55.44;100252.84;5054259;27;100805;-78
2023/10/14 09:23:29;;;;;;;10.60;1.17;;;;;;;19.79;54.71;100252.31;5049620;27;96921;-76
2023/10/14 09:25:57;;;;;;;12.68;1.90;;;;;;;20.16;52.77;100264.41;5047296;27;96885;-78
2023/10/14 09:28:25;;;;;;;10.30;2.15;;;;;;;20.75;50.94;100265.75;5051345;27;98359;-77
2023/10/14 09:30:55;;;;;;;5.88;1.50;;;;;;;20.86;50.37;100269.25;5048827;27;101327;-79
2023/10/14 09:33:27;;;;;;;9.25;2.17;;;;;;;20.78;50.19;100271.75;5053907;27;96808;-78
2023/10/14 09:35:55;;;;;;;11.93;1.65;;;;;;;20.42;51.12;100280.19;5052451;27;96777;-78
2023/10/14 09:38:23;;;;;;;11.50;1.60;;;;;;;19.66;51.45;100281.94;5053200;27;98532;-78
2023/10/14 09:41:02;;;;;;;10.75;1.80;;;;;;;19.83;50.33;100285.94;5050965;27;101912;-79
2023/10/14 09:43:29;;;;;;;9.00;1.60;;;;;;;19.21;51.58;100289.09;5044845;27;102111;-78
2023/10/14 09:45:59;;;;;;;12.20;1.60;;;;;;;19.72;50.80;100294.88;5048320;27;97347;-78
2023/10/14 09:48:26;;;;;;;10.65;1.23;;;;;;;19.96;49.43;100297.38;5053017;27;98901;-78
2023/10/14 09:50:55;;;;;;;10.48;1.70;;;;;;;20.20;49.30;100291.84;5048804;27;99147;-78
2023/10/14 09:53:26;;;;;;;12.73;1.58;;;;;;;20.38;49.26;100289.50;5051225;27;97116;-77
2023/10/14 09:55:53;;;;;;;12.30;1.55;;;;;;;20.40;48.50;100309.88;5051586;27;97003;-78
2023/10/14 09:58:23;;;;;;;12.07;2.03;;;;;;;20.55;47.84;100311.25;5048706;27;99791;-79
2023/10/14 10:00:50;;;;;;;7.72;1.73;;;;;;;20.68;47.06;100314.59;5044012;27;98130;-78
2023/10/14 10:03:21;;;;;;;15.05;2.25;;;;;;;20.65;45.79;100314.03;5046082;27;96742;-83
2023/10/14 10:05:59;;;;;;;8.45;1.60;;;;;;;20.18;45.50;100313.44;5052834;27;96804;-83
2023/10/14 10:08:47;;;;;;;10.27;1.77;;;;;;;20.52;43.88;100319.56;5054668;27;99333;-85
2023/10/14 10:11:23;;;;;;;10.27;1.75;;;;;;;20.37;45.33;100314.63;5050460;27;101289;-79
2023/10/14 10:13:50;;;;;;;7.10;1.20;;;;;;;19.87;45.88;100324.94;5050756;27;97036;-76
2023/10/14 10:16:21;;;;;;;8.40;1.80;;;;;;;20.66;44.60;100326.47;5050629;27;98524;-75
2023/10/14 10:18:56;;;;;;;12.02;2.22;;;;;;;20.83;43.80;100328.56;5050367;27;97945;-74
2023/10/14 10:21:26;;;;;;;11.52;2.00;;;;;;;21.26;44.04;100325.81;5046416;27;97651;-75
2023/10/14 10:23:56;;;;;;;10.77;2.58;;;;;;;21.36;42.79;100329.38;5046733;27;97477;-76
2023/10/14 10:26:23;;;;;;;12.75;1.77;;;;;;;21.72;42.16;100337.91;5045970;27;97124;-76
2023/10/14 10:28:50;;;;;;;13.00;2.10;;;;;;;21.81;41.20;100320.94;5052477;27;101787;-76
2023/10/14 10:31:23;;;;;;;14.57;2.10;;;;;;;22.08;41.05;100329.28;5050789;27;99841;-77
2023/10/14 10:33:58;;;;;;;13.32;1.90;;;;;;;22.08;40.43;100328.44;5050070;27;96759;-76
2023/10/14 10:36:27;;;;;;;8.52;2.00;;;;;;;21.73;41.37;100334.22;5051242;27;97428;-80
2023/10/14 10:38:55;;;;;;;9.43;1.67;;;;;;;21.35;41.60;100337.56;5050548;27;99364;-80
2023/10/14 10:41:30;;;;;;;10.57;1.55;;;;;;;21.37;42.15;100347.22;5051101;27;98784;-76
2023/10/14 10:44:05;;;;;;;10.95;2.40;;;;;;;21.00;42.72;100354.03;5046849;27;98073;-76
2023/10/14 10:46:38;;;;;;;10.73;2.13;;;;;;;21.21;42.15;100354.88;5050635;27;96818;-76
2023/10/14 10:49:07;;;;;;;7.68;1.60;;;;;;;21.34;40.88;100362.75;5051433;27;99230;-76
2023/10/14 10:51:34;;;;;;;10.13;1.80;;;;;;;20.66;41.30;100359.53;5051564;27;100047;-75
2023/10/14 10:54:02;;;;;;;8.70;1.50;;;;;;;20.48;41.39;100379.00;5052266;27;96901;-75
2023/10/14 10:56:30;;;;;;;7.30;1.70;;;;;;;20.98;41.27;100375.63;5051099;27;96931;-75
2023/10/14 10:59:04;;;;;;;9.25;1.55;;;;;;;21.15;40.57;100376.88;5047439;27;97455;-74
2023/10/14 11:01:32;;;;;;;12.82;2.15;;;;;;;20.72;41.08;100373.44;5049927;27;98816;-74
2023/10/14 11:04:00;;;;;;;13.15;1.75;;;;;;;20.42;40.94;100382.16;5046563;27;97238;-75
2023/10/14 11:06:29;;;;;;;12.60;1.30;;;;;;;20.64;41.07;100382.13;5046078;27;99009;-75
2023/10/14 11:08:58;;;;;;;9.27;1.83;;;;;;;20.40;40.22;100386.84;5048734;27;100570;-76
2023/10/14 11:11:30;;;;;;;11.98;1.85;;;;;;;20.33;41.33;100391.00;5047561;27;98028;-75
2023/10/14 11:13:57;;;;;;;11.93;1.88;;;;;;;19.98;41.34;100389.28;5049873;27;96799;-76
2023/10/14 11:16:27;;;;;;;11.23;1.88;;;;;;;20.04;41.25;100395.97;5044714;27;96900;-75
2023/10/14 11:18:54;;;;;;;12.18;1.73;;;;;;;19.98;39.79;100394.66;5045674;27;98927;-77
2023/10/14 11:21:21;;;;;;;10.52;1.38;;;;;;;20.23;39.67;100391.69;5046477;27;99242;-74
2023/10/14 11:23:52;;;;;;;16.63;1.58;;;;;;;19.99;40.53;100390.16;5047219;27;96875;-76
2023/10/14 11:26:20;;;;;;;11.93;1.92;;;;;;;20.11;40.90;100397.19;5042841;27;96926;-77
2023/10/14 11:28:48;;;;;;;11.50;1.40;;;;;;;20.34;40.80;100379.28;5050422;27;98947;-77
2023/10/14 11:31:16;;;;;;;8.20;1.95;;;;;;;20.51;39.28;100390.34;5049142;27;98588;-78
2023/10/14 11:33:46;;;;;;;11.18;1.65;;;;;;;20.55;38.91;100390.91;5051954;27;97347;-76
2023/10/14 11:36:17;;;;;;;11.13;2.10;;;;;;;20.75;38.45;100394.63;5045134;27;97612;-77
2023/10/14 11:38:46;;;;;;;10.57;1.92;;;;;;;20.05;38.78;100389.66;5048405;27;101400;-77